sensor_id;sensor_type;location;lat;lon;timestamp;P1;durP1;ratioP1;P2;durP2;ratioP2
58083;SDS011;43882;51.550;11.858;2023-05-10T00:00:36;16.23;;;5.55;;
58083;SDS011;43882;51.550;11.858;2023-05-10T00:03:03;16.52;;;5.90;;
58083;SDS011;43882;51.550;11.858;2023-05-10T00:05:32;17.17;;;6.57;;
58083;SDS011;43882;51.550;11.858;2023-05-10T00:07:58;17.75;;;6.45;;
58083;SDS011;43882;51.550;11.858;2023-05-10T00:10:24;17.05;;;6.25;;
58083;SDS011;43882;51.550;11.858;2023-05-10T00:12:50;17.20;;;6.38;;
58083;SDS011;43882;51.550;11.858;2023-05-10T00:15:16;16.73;;;6.18;;
58083;SDS011;43882;51.550;11.858;2023-05-10T00:17:42;16.73;;;6.00;;
58083;SDS011;43882;51.550;11.858;2023-05-10T00:20:08;15.73;;;6.13;;
58083;SDS011;43882;51.550;11.858;2023-05-10T00:22:35;17.67;;;6.13;;
58083;SDS011;43882;51.550;11.858;2023-05-10T00:25:01;17.42;;;6.25;;
58083;SDS011;43882;51.550;11.858;2023-05-10T00:27:27;16.77;;;6.05;;
58083;SDS011;43882;51.550;11.858;2023-05-10T00:29:53;17.95;;;6.40;;
58083;SDS011;43882;51.550;11.858;2023-05-10T00:32:19;16.10;;;6.10;;
58083;SDS011;43882;51.550;11.858;2023-05-10T00:34:45;16.75;;;6.05;;
58083;SDS011;43882;51.550;11.858;2023-05-10T00:37:11;16.15;;;5.70;;
58083;SDS011;43882;51.550;11.858;2023-05-10T00:39:37;18.27;;;6.32;;
58083;SDS011;43882;51.550;11.858;2023-05-10T00:42:04;17.33;;;6.10;;
58083;SDS011;43882;51.550;11.858;2023-05-10T00:44:30;17.58;;;6.07;;
58083;SDS011;43882;51.550;11.858;2023-05-10T00:46:56;16.75;;;6.32;;
58083;SDS011;43882;51.550;11.858;2023-05-10T00:49:22;18.40;;;6.35;;
58083;SDS011;43882;51.550;11.858;2023-05-10T00:51:49;17.42;;;6.30;;
58083;SDS011;43882;51.550;11.858;2023-05-10T00:54:15;17.73;;;6.80;;
58083;SDS011;43882;51.550;11.858;2023-05-10T00:56:42;17.00;;;6.15;;
58083;SDS011;43882;51.550;11.858;2023-05-10T00:59:13;17.55;;;6.30;;
58083;SDS011;43882;51.550;11.858;2023-05-10T01:01:41;16.92;;;6.35;;
58083;SDS011;43882;51.550;11.858;2023-05-10T01:04:08;18.15;;;7.00;;
58083;SDS011;43882;51.550;11.858;2023-05-10T01:06:35;18.08;;;6.60;;
58083;SDS011;43882;51.550;11.858;2023-05-10T01:09:02;18.15;;;6.72;;
58083;SDS011;43882;51.550;11.858;2023-05-10T01:11:28;22.27;;;7.10;;
58083;SDS011;43882;51.550;11.858;2023-05-10T01:13:57;16.45;;;5.93;;
58083;SDS011;43882;51.550;11.858;2023-05-10T01:16:23;17.55;;;6.53;;
58083;SDS011;43882;51.550;11.858;2023-05-10T01:18:50;17.98;;;7.40;;
58083;SDS011;43882;51.550;11.858;2023-05-10T01:21:19;17.42;;;6.43;;
58083;SDS011;43882;51.550;11.858;2023-05-10T01:35:36;17.20;;;6.30;;
58083;SDS011;43882;51.550;11.858;2023-05-10T01:38:17;18.70;;;6.82;;
58083;SDS011;43882;51.550;11.858;2023-05-10T01:41:11;17.50;;;6.43;;
58083;SDS011;43882;51.550;11.858;2023-05-10T01:43:47;19.77;;;6.80;;
58083;SDS011;43882;51.550;11.858;2023-05-10T01:46:53;18.55;;;6.60;;
58083;SDS011;43882;51.550;11.858;2023-05-10T01:49:29;18.70;;;6.85;;
58083;SDS011;43882;51.550;11.858;2023-05-10T01:51:59;18.10;;;6.78;;
58083;SDS011;43882;51.550;11.858;2023-05-10T01:54:31;18.10;;;7.05;;
58083;SDS011;43882;51.550;11.858;2023-05-10T01:57:00;19.40;;;7.20;;
58083;SDS011;43882;51.550;11.858;2023-05-10T01:59:29;19.27;;;6.78;;
58083;SDS011;43882;51.550;11.858;2023-05-10T02:02:01;20.07;;;7.10;;
58083;SDS011;43882;51.550;11.858;2023-05-10T02:04:28;17.77;;;6.43;;
58083;SDS011;43882;51.550;11.858;2023-05-10T02:06:54;17.48;;;6.45;;
58083;SDS011;43882;51.550;11.858;2023-05-10T02:09:21;16.95;;;6.15;;
58083;SDS011;43882;51.550;11.858;2023-05-10T02:11:48;17.00;;;6.50;;
58083;SDS011;43882;51.550;11.858;2023-05-10T02:14:14;19.00;;;6.55;;
58083;SDS011;43882;51.550;11.858;2023-05-10T02:16:41;17.92;;;6.82;;
58083;SDS011;43882;51.550;11.858;2023-05-10T02:19:08;16.92;;;6.50;;
58083;SDS011;43882;51.550;11.858;2023-05-10T02:21:35;18.48;;;6.15;;
58083;SDS011;43882;51.550;11.858;2023-05-10T02:24:03;17.27;;;6.18;;
58083;SDS011;43882;51.550;11.858;2023-05-10T02:26:30;17.45;;;6.20;;
58083;SDS011;43882;51.550;11.858;2023-05-10T02:28:57;18.65;;;6.50;;
58083;SDS011;43882;51.550;11.858;2023-05-10T02:31:23;17.77;;;6.40;;
58083;SDS011;43882;51.550;11.858;2023-05-10T02:33:50;17.02;;;6.00;;
58083;SDS011;43882;51.550;11.858;2023-05-10T02:36:17;18.45;;;6.57;;
58083;SDS011;43882;51.550;11.858;2023-05-10T02:38:44;18.60;;;6.40;;
58083;SDS011;43882;51.550;11.858;2023-05-10T02:41:11;17.73;;;7.00;;
58083;SDS011;43882;51.550;11.858;2023-05-10T02:43:37;17.30;;;6.57;;
58083;SDS011;43882;51.550;11.858;2023-05-10T02:46:03;17.55;;;6.47;;
58083;SDS011;43882;51.550;11.858;2023-05-10T02:48:30;19.13;;;6.45;;
58083;SDS011;43882;51.550;11.858;2023-05-10T02:50:57;17.73;;;6.50;;
58083;SDS011;43882;51.550;11.858;2023-05-10T02:53:30;19.98;;;6.65;;
58083;SDS011;43882;51.550;11.858;2023-05-10T02:55:59;17.15;;;6.35;;
58083;SDS011;43882;51.550;11.858;2023-05-10T02:58:28;17.95;;;6.72;;
58083;SDS011;43882;51.550;11.858;2023-05-10T03:00:54;19.25;;;6.95;;
58083;SDS011;43882;51.550;11.858;2023-05-10T03:03:20;18.75;;;6.70;;
58083;SDS011;43882;51.550;11.858;2023-05-10T03:05:47;19.83;;;7.28;;
58083;SDS011;43882;51.550;11.858;2023-05-10T03:08:13;18.48;;;6.53;;
58083;SDS011;43882;51.550;11.858;2023-05-10T03:10:41;18.83;;;7.07;;
58083;SDS011;43882;51.550;11.858;2023-05-10T03:13:29;20.02;;;7.07;;
58083;SDS011;43882;51.550;11.858;2023-05-10T03:16:14;16.83;;;6.45;;
58083;SDS011;43882;51.550;11.858;2023-05-10T03:18:43;18.08;;;6.85;;
58083;SDS011;43882;51.550;11.858;2023-05-10T03:21:13;18.02;;;6.70;;
58083;SDS011;43882;51.550;11.858;2023-05-10T03:23:44;17.52;;;6.45;;
58083;SDS011;43882;51.550;11.858;2023-05-10T03:26:26;17.45;;;6.65;;
58083;SDS011;43882;51.550;11.858;2023-05-10T03:28:52;18.70;;;6.93;;
58083;SDS011;43882;51.550;11.858;2023-05-10T03:31:19;17.60;;;6.93;;
58083;SDS011;43882;51.550;11.858;2023-05-10T03:33:49;17.48;;;6.50;;
58083;SDS011;43882;51.550;11.858;2023-05-10T03:36:16;20.05;;;7.20;;
58083;SDS011;43882;51.550;11.858;2023-05-10T03:38:43;18.27;;;6.90;;
58083;SDS011;43882;51.550;11.858;2023-05-10T03:41:09;18.88;;;6.82;;
58083;SDS011;43882;51.550;11.858;2023-05-10T03:43:35;19.15;;;7.38;;
58083;SDS011;43882;51.550;11.858;2023-05-10T03:46:04;18.63;;;6.85;;
58083;SDS011;43882;51.550;11.858;2023-05-10T03:48:31;17.80;;;6.72;;
58083;SDS011;43882;51.550;11.858;2023-05-10T03:50:58;17.10;;;6.63;;
58083;SDS011;43882;51.550;11.858;2023-05-10T03:53:24;17.15;;;6.63;;
58083;SDS011;43882;51.550;11.858;2023-05-10T03:55:51;18.55;;;6.38;;
58083;SDS011;43882;51.550;11.858;2023-05-10T03:58:17;18.17;;;6.60;;
58083;SDS011;43882;51.550;11.858;2023-05-10T04:00:44;17.83;;;6.50;;
58083;SDS011;43882;51.550;11.858;2023-05-10T04:03:13;18.63;;;7.22;;
58083;SDS011;43882;51.550;11.858;2023-05-10T04:05:39;17.80;;;6.78;;
58083;SDS011;43882;51.550;11.858;2023-05-10T04:08:06;17.20;;;6.80;;
58083;SDS011;43882;51.550;11.858;2023-05-10T04:10:32;18.38;;;6.50;;
58083;SDS011;43882;51.550;11.858;2023-05-10T04:12:58;17.70;;;6.93;;
58083;SDS011;43882;51.550;11.858;2023-05-10T04:15:24;17.75;;;6.68;;
58083;SDS011;43882;51.550;11.858;2023-05-10T04:17:50;19.83;;;7.30;;
58083;SDS011;43882;51.550;11.858;2023-05-10T04:20:16;19.20;;;7.32;;
58083;SDS011;43882;51.550;11.858;2023-05-10T04:22:42;18.33;;;6.68;;
58083;SDS011;43882;51.550;11.858;2023-05-10T04:25:08;18.95;;;6.70;;
58083;SDS011;43882;51.550;11.858;2023-05-10T04:27:35;18.33;;;6.68;;
58083;SDS011;43882;51.550;11.858;2023-05-10T04:30:01;17.55;;;6.50;;
58083;SDS011;43882;51.550;11.858;2023-05-10T04:32:27;17.50;;;6.22;;
58083;SDS011;43882;51.550;11.858;2023-05-10T04:34:54;17.73;;;6.90;;
58083;SDS011;43882;51.550;11.858;2023-05-10T04:37:20;18.70;;;6.45;;
58083;SDS011;43882;51.550;11.858;2023-05-10T04:39:47;17.65;;;6.88;;
58083;SDS011;43882;51.550;11.858;2023-05-10T04:42:13;17.67;;;6.72;;
58083;SDS011;43882;51.550;11.858;2023-05-10T04:44:40;17.70;;;6.45;;
58083;SDS011;43882;51.550;11.858;2023-05-10T04:47:06;19.58;;;6.95;;
58083;SDS011;43882;51.550;11.858;2023-05-10T04:49:32;17.35;;;6.85;;
58083;SDS011;43882;51.550;11.858;2023-05-10T04:51:58;17.95;;;6.38;;
58083;SDS011;43882;51.550;11.858;2023-05-10T04:54:24;17.23;;;6.70;;
58083;SDS011;43882;51.550;11.858;2023-05-10T04:56:50;18.35;;;6.88;;
58083;SDS011;43882;51.550;11.858;2023-05-10T04:59:16;19.13;;;7.45;;
58083;SDS011;43882;51.550;11.858;2023-05-10T05:01:42;19.67;;;8.73;;
58083;SDS011;43882;51.550;11.858;2023-05-10T05:04:09;20.20;;;8.23;;
58083;SDS011;43882;51.550;11.858;2023-05-10T05:06:35;17.73;;;7.10;;
58083;SDS011;43882;51.550;11.858;2023-05-10T05:09:01;18.13;;;6.75;;
58083;SDS011;43882;51.550;11.858;2023-05-10T05:11:27;17.30;;;6.55;;
58083;SDS011;43882;51.550;11.858;2023-05-10T05:13:53;17.50;;;6.70;;
58083;SDS011;43882;51.550;11.858;2023-05-10T05:16:19;18.55;;;6.28;;
58083;SDS011;43882;51.550;11.858;2023-05-10T05:18:46;17.77;;;7.15;;
58083;SDS011;43882;51.550;11.858;2023-05-10T05:21:15;16.48;;;6.38;;
58083;SDS011;43882;51.550;11.858;2023-05-10T05:23:42;18.17;;;6.60;;
58083;SDS011;43882;51.550;11.858;2023-05-10T05:26:08;16.92;;;6.20;;
58083;SDS011;43882;51.550;11.858;2023-05-10T05:28:34;17.55;;;6.97;;
58083;SDS011;43882;51.550;11.858;2023-05-10T05:31:02;17.98;;;6.65;;
58083;SDS011;43882;51.550;11.858;2023-05-10T05:33:29;24.42;;;9.98;;
58083;SDS011;43882;51.550;11.858;2023-05-10T05:35:55;19.05;;;7.22;;
58083;SDS011;43882;51.550;11.858;2023-05-10T05:38:21;16.80;;;6.10;;
58083;SDS011;43882;51.550;11.858;2023-05-10T05:40:48;17.20;;;6.25;;
58083;SDS011;43882;51.550;11.858;2023-05-10T05:43:14;17.20;;;6.40;;
58083;SDS011;43882;51.550;11.858;2023-05-10T05:45:40;16.88;;;6.47;;
58083;SDS011;43882;51.550;11.858;2023-05-10T05:48:06;18.10;;;6.85;;
58083;SDS011;43882;51.550;11.858;2023-05-10T05:50:32;17.00;;;6.13;;
58083;SDS011;43882;51.550;11.858;2023-05-10T05:52:58;16.85;;;6.00;;
58083;SDS011;43882;51.550;11.858;2023-05-10T05:55:24;16.40;;;5.60;;
58083;SDS011;43882;51.550;11.858;2023-05-10T05:57:51;17.83;;;6.30;;
58083;SDS011;43882;51.550;11.858;2023-05-10T06:00:17;18.13;;;5.88;;
58083;SDS011;43882;51.550;11.858;2023-05-10T06:02:43;17.38;;;5.93;;
58083;SDS011;43882;51.550;11.858;2023-05-10T06:05:09;17.73;;;6.00;;
58083;SDS011;43882;51.550;11.858;2023-05-10T06:07:35;16.98;;;5.72;;
58083;SDS011;43882;51.550;11.858;2023-05-10T06:10:02;15.63;;;5.32;;
58083;SDS011;43882;51.550;11.858;2023-05-10T06:12:28;18.40;;;5.38;;
58083;SDS011;43882;51.550;11.858;2023-05-10T06:14:54;16.13;;;6.13;;
58083;SDS011;43882;51.550;11.858;2023-05-10T06:17:20;17.25;;;6.15;;
58083;SDS011;43882;51.550;11.858;2023-05-10T06:19:46;18.02;;;5.90;;
58083;SDS011;43882;51.550;11.858;2023-05-10T06:22:12;15.93;;;5.40;;
58083;SDS011;43882;51.550;11.858;2023-05-10T06:24:39;17.55;;;6.00;;
58083;SDS011;43882;51.550;11.858;2023-05-10T06:27:05;18.88;;;6.10;;
58083;SDS011;43882;51.550;11.858;2023-05-10T06:29:32;17.55;;;6.25;;
58083;SDS011;43882;51.550;11.858;2023-05-10T06:31:58;16.73;;;5.85;;
58083;SDS011;43882;51.550;11.858;2023-05-10T06:34:24;17.42;;;5.65;;
58083;SDS011;43882;51.550;11.858;2023-05-10T06:36:50;17.67;;;5.70;;
58083;SDS011;43882;51.550;11.858;2023-05-10T06:39:16;18.05;;;5.78;;
58083;SDS011;43882;51.550;11.858;2023-05-10T06:41:42;15.60;;;5.43;;
58083;SDS011;43882;51.550;11.858;2023-05-10T06:44:08;16.67;;;5.50;;
58083;SDS011;43882;51.550;11.858;2023-05-10T06:46:35;19.65;;;5.57;;
58083;SDS011;43882;51.550;11.858;2023-05-10T06:49:01;16.80;;;5.65;;
58083;SDS011;43882;51.550;11.858;2023-05-10T06:51:27;16.00;;;5.53;;
58083;SDS011;43882;51.550;11.858;2023-05-10T06:53:53;16.40;;;5.32;;
58083;SDS011;43882;51.550;11.858;2023-05-10T06:56:19;16.98;;;5.70;;
58083;SDS011;43882;51.550;11.858;2023-05-10T06:58:46;16.02;;;5.65;;
58083;SDS011;43882;51.550;11.858;2023-05-10T07:01:13;17.33;;;5.70;;
58083;SDS011;43882;51.550;11.858;2023-05-10T07:03:39;16.35;;;6.13;;
58083;SDS011;43882;51.550;11.858;2023-05-10T07:06:05;15.52;;;5.40;;
58083;SDS011;43882;51.550;11.858;2023-05-10T07:08:32;16.02;;;5.40;;
58083;SDS011;43882;51.550;11.858;2023-05-10T07:11:02;17.85;;;5.70;;
58083;SDS011;43882;51.550;11.858;2023-05-10T07:13:30;17.35;;;6.32;;
58083;SDS011;43882;51.550;11.858;2023-05-10T07:15:57;19.48;;;5.75;;
58083;SDS011;43882;51.550;11.858;2023-05-10T07:18:23;18.83;;;6.40;;
58083;SDS011;43882;51.550;11.858;2023-05-10T07:20:50;17.13;;;6.18;;
58083;SDS011;43882;51.550;11.858;2023-05-10T07:23:16;16.95;;;5.55;;
58083;SDS011;43882;51.550;11.858;2023-05-10T07:25:48;17.35;;;6.05;;
58083;SDS011;43882;51.550;11.858;2023-05-10T07:28:16;18.08;;;6.32;;
58083;SDS011;43882;51.550;11.858;2023-05-10T07:30:42;16.63;;;5.88;;
58083;SDS011;43882;51.550;11.858;2023-05-10T07:33:09;18.20;;;6.22;;
58083;SDS011;43882;51.550;11.858;2023-05-10T07:35:36;16.55;;;5.82;;
58083;SDS011;43882;51.550;11.858;2023-05-10T07:38:02;19.45;;;6.47;;
58083;SDS011;43882;51.550;11.858;2023-05-10T07:40:28;17.42;;;6.72;;
58083;SDS011;43882;51.550;11.858;2023-05-10T07:42:55;17.73;;;6.95;;
58083;SDS011;43882;51.550;11.858;2023-05-10T07:45:21;16.65;;;6.22;;
58083;SDS011;43882;51.550;11.858;2023-05-10T07:47:48;18.73;;;7.05;;
58083;SDS011;43882;51.550;11.858;2023-05-10T07:50:14;18.88;;;6.78;;
58083;SDS011;43882;51.550;11.858;2023-05-10T07:52:40;17.58;;;6.97;;
58083;SDS011;43882;51.550;11.858;2023-05-10T07:55:07;19.75;;;7.28;;
58083;SDS011;43882;51.550;11.858;2023-05-10T07:57:33;19.25;;;7.20;;
58083;SDS011;43882;51.550;11.858;2023-05-10T08:00:00;18.20;;;7.32;;
58083;SDS011;43882;51.550;11.858;2023-05-10T08:02:26;17.95;;;7.32;;
58083;SDS011;43882;51.550;11.858;2023-05-10T08:04:52;17.63;;;6.88;;
58083;SDS011;43882;51.550;11.858;2023-05-10T08:07:18;17.80;;;6.82;;
58083;SDS011;43882;51.550;11.858;2023-05-10T08:09:44;17.27;;;6.72;;
58083;SDS011;43882;51.550;11.858;2023-05-10T08:12:10;20.25;;;8.13;;
58083;SDS011;43882;51.550;11.858;2023-05-10T08:14:36;18.42;;;6.93;;
58083;SDS011;43882;51.550;11.858;2023-05-10T08:17:02;19.50;;;7.45;;
58083;SDS011;43882;51.550;11.858;2023-05-10T08:19:29;20.00;;;7.10;;
58083;SDS011;43882;51.550;11.858;2023-05-10T08:21:55;18.70;;;7.70;;
58083;SDS011;43882;51.550;11.858;2023-05-10T08:24:21;19.00;;;7.93;;
58083;SDS011;43882;51.550;11.858;2023-05-10T08:26:48;18.13;;;7.70;;
58083;SDS011;43882;51.550;11.858;2023-05-10T08:29:14;18.50;;;7.70;;
58083;SDS011;43882;51.550;11.858;2023-05-10T08:31:40;19.58;;;8.38;;
58083;SDS011;43882;51.550;11.858;2023-05-10T08:34:06;21.48;;;8.43;;
58083;SDS011;43882;51.550;11.858;2023-05-10T08:36:32;20.05;;;8.70;;
58083;SDS011;43882;51.550;11.858;2023-05-10T08:38:58;19.05;;;8.20;;
58083;SDS011;43882;51.550;11.858;2023-05-10T08:41:25;20.02;;;8.45;;
58083;SDS011;43882;51.550;11.858;2023-05-10T08:43:51;19.85;;;8.73;;
58083;SDS011;43882;51.550;11.858;2023-05-10T08:46:19;21.63;;;9.30;;
58083;SDS011;43882;51.550;11.858;2023-05-10T08:48:49;22.23;;;9.70;;
58083;SDS011;43882;51.550;11.858;2023-05-10T08:51:17;21.92;;;8.52;;
58083;SDS011;43882;51.550;11.858;2023-05-10T08:53:51;20.88;;;8.75;;
58083;SDS011;43882;51.550;11.858;2023-05-10T08:56:18;20.38;;;8.48;;
58083;SDS011;43882;51.550;11.858;2023-05-10T08:58:45;21.70;;;8.38;;
58083;SDS011;43882;51.550;11.858;2023-05-10T09:01:12;19.98;;;8.38;;
58083;SDS011;43882;51.550;11.858;2023-05-10T09:03:38;19.20;;;8.45;;
58083;SDS011;43882;51.550;11.858;2023-05-10T09:06:05;19.08;;;8.13;;
58083;SDS011;43882;51.550;11.858;2023-05-10T09:08:31;19.10;;;8.25;;
58083;SDS011;43882;51.550;11.858;2023-05-10T09:10:58;17.80;;;7.78;;
58083;SDS011;43882;51.550;11.858;2023-05-10T09:13:26;19.98;;;8.48;;
58083;SDS011;43882;51.550;11.858;2023-05-10T09:15:53;19.15;;;7.80;;
58083;SDS011;43882;51.550;11.858;2023-05-10T09:18:19;17.13;;;6.75;;
58083;SDS011;43882;51.550;11.858;2023-05-10T09:20:45;19.20;;;6.78;;
58083;SDS011;43882;51.550;11.858;2023-05-10T09:23:12;17.05;;;6.28;;
58083;SDS011;43882;51.550;11.858;2023-05-10T09:25:38;19.35;;;6.47;;
58083;SDS011;43882;51.550;11.858;2023-05-10T09:28:07;16.50;;;6.30;;
58083;SDS011;43882;51.550;11.858;2023-05-10T09:30:34;16.73;;;6.28;;
58083;SDS011;43882;51.550;11.858;2023-05-10T09:33:00;17.92;;;6.32;;
58083;SDS011;43882;51.550;11.858;2023-05-10T09:35:27;17.65;;;6.88;;
58083;SDS011;43882;51.550;11.858;2023-05-10T09:37:55;17.65;;;7.55;;
58083;SDS011;43882;51.550;11.858;2023-05-10T09:40:23;16.38;;;6.10;;
58083;SDS011;43882;51.550;11.858;2023-05-10T09:42:51;16.20;;;5.50;;
58083;SDS011;43882;51.550;11.858;2023-05-10T09:45:20;16.55;;;5.32;;
58083;SDS011;43882;51.550;11.858;2023-05-10T09:47:47;15.93;;;5.78;;
58083;SDS011;43882;51.550;11.858;2023-05-10T09:50:13;15.73;;;5.43;;
58083;SDS011;43882;51.550;11.858;2023-05-10T09:52:47;15.38;;;4.75;;
58083;SDS011;43882;51.550;11.858;2023-05-10T09:55:22;14.75;;;4.82;;
58083;SDS011;43882;51.550;11.858;2023-05-10T09:57:49;15.90;;;4.78;;
58083;SDS011;43882;51.550;11.858;2023-05-10T10:00:23;15.00;;;5.00;;
58083;SDS011;43882;51.550;11.858;2023-05-10T10:02:59;15.68;;;4.90;;
58083;SDS011;43882;51.550;11.858;2023-05-10T10:05:28;14.55;;;4.70;;
58083;SDS011;43882;51.550;11.858;2023-05-10T10:07:58;15.30;;;4.80;;
58083;SDS011;43882;51.550;11.858;2023-05-10T10:10:25;13.75;;;4.63;;
58083;SDS011;43882;51.550;11.858;2023-05-10T10:12:52;14.05;;;4.30;;
58083;SDS011;43882;51.550;11.858;2023-05-10T10:15:19;14.57;;;4.30;;
58083;SDS011;43882;51.550;11.858;2023-05-10T10:17:46;14.65;;;3.92;;
58083;SDS011;43882;51.550;11.858;2023-05-10T10:20:13;13.25;;;4.00;;
58083;SDS011;43882;51.550;11.858;2023-05-10T10:22:40;14.07;;;4.10;;
58083;SDS011;43882;51.550;11.858;2023-05-10T10:25:08;14.40;;;4.50;;
58083;SDS011;43882;51.550;11.858;2023-05-10T10:33:06;12.75;;;3.88;;
58083;SDS011;43882;51.550;11.858;2023-05-10T10:35:44;12.90;;;3.70;;
58083;SDS011;43882;51.550;11.858;2023-05-10T10:38:12;13.63;;;4.03;;
58083;SDS011;43882;51.550;11.858;2023-05-10T10:40:38;12.82;;;4.15;;
58083;SDS011;43882;51.550;11.858;2023-05-10T10:43:24;14.30;;;4.35;;
58083;SDS011;43882;51.550;11.858;2023-05-10T10:48:38;13.93;;;4.60;;
58083;SDS011;43882;51.550;11.858;2023-05-10T10:51:04;15.43;;;5.00;;
58083;SDS011;43882;51.550;11.858;2023-05-10T10:53:30;14.40;;;4.88;;
58083;SDS011;43882;51.550;11.858;2023-05-10T10:56:07;13.90;;;4.93;;
58083;SDS011;43882;51.550;11.858;2023-05-10T10:58:35;14.43;;;4.75;;
58083;SDS011;43882;51.550;11.858;2023-05-10T11:01:12;14.73;;;4.90;;
58083;SDS011;43882;51.550;11.858;2023-05-10T11:03:40;14.90;;;5.03;;
58083;SDS011;43882;51.550;11.858;2023-05-10T11:06:06;15.00;;;4.82;;
58083;SDS011;43882;51.550;11.858;2023-05-10T11:08:34;14.25;;;4.45;;
58083;SDS011;43882;51.550;11.858;2023-05-10T11:11:07;14.10;;;4.70;;
58083;SDS011;43882;51.550;11.858;2023-05-10T11:13:34;15.00;;;5.38;;
58083;SDS011;43882;51.550;11.858;2023-05-10T11:16:10;14.52;;;4.35;;
58083;SDS011;43882;51.550;11.858;2023-05-10T11:18:37;14.30;;;5.32;;
58083;SDS011;43882;51.550;11.858;2023-05-10T11:21:03;14.18;;;4.80;;
58083;SDS011;43882;51.550;11.858;2023-05-10T11:23:32;15.13;;;5.15;;
58083;SDS011;43882;51.550;11.858;2023-05-10T11:26:08;15.27;;;4.90;;
58083;SDS011;43882;51.550;11.858;2023-05-10T11:28:34;15.00;;;4.78;;
58083;SDS011;43882;51.550;11.858;2023-05-10T11:31:06;14.07;;;4.40;;
58083;SDS011;43882;51.550;11.858;2023-05-10T11:33:41;14.98;;;4.85;;
58083;SDS011;43882;51.550;11.858;2023-05-10T11:36:22;14.20;;;4.82;;
58083;SDS011;43882;51.550;11.858;2023-05-10T11:38:53;14.40;;;5.00;;
58083;SDS011;43882;51.550;11.858;2023-05-10T11:41:19;15.82;;;5.05;;
58083;SDS011;43882;51.550;11.858;2023-05-10T11:43:47;15.15;;;4.70;;
58083;SDS011;43882;51.550;11.858;2023-05-10T11:46:17;15.23;;;4.20;;
58083;SDS011;43882;51.550;11.858;2023-05-10T11:48:45;13.18;;;4.20;;
58083;SDS011;43882;51.550;11.858;2023-05-10T11:51:19;13.90;;;4.20;;
58083;SDS011;43882;51.550;11.858;2023-05-10T11:53:47;13.77;;;3.78;;
58083;SDS011;43882;51.550;11.858;2023-05-10T11:56:14;13.27;;;4.10;;
58083;SDS011;43882;51.550;11.858;2023-05-10T11:58:40;13.13;;;4.00;;
58083;SDS011;43882;51.550;11.858;2023-05-10T12:01:07;13.63;;;4.15;;
58083;SDS011;43882;51.550;11.858;2023-05-10T12:03:34;12.88;;;3.53;;
58083;SDS011;43882;51.550;11.858;2023-05-10T12:06:01;10.60;;;3.22;;
58083;SDS011;43882;51.550;11.858;2023-05-10T12:08:28;12.13;;;3.40;;
58083;SDS011;43882;51.550;11.858;2023-05-10T12:11:07;12.15;;;3.45;;
58083;SDS011;43882;51.550;11.858;2023-05-10T12:13:38;12.57;;;3.67;;
58083;SDS011;43882;51.550;11.858;2023-05-10T12:16:22;11.88;;;3.15;;
58083;SDS011;43882;51.550;11.858;2023-05-10T12:18:52;11.85;;;3.47;;
58083;SDS011;43882;51.550;11.858;2023-05-10T12:21:21;11.75;;;3.72;;
58083;SDS011;43882;51.550;11.858;2023-05-10T12:23:49;11.38;;;3.42;;
58083;SDS011;43882;51.550;11.858;2023-05-10T12:26:16;11.55;;;3.63;;
58083;SDS011;43882;51.550;11.858;2023-05-10T12:28:42;13.68;;;4.60;;
58083;SDS011;43882;51.550;11.858;2023-05-10T12:31:09;12.52;;;3.67;;
58083;SDS011;43882;51.550;11.858;2023-05-10T12:33:36;13.95;;;4.22;;
58083;SDS011;43882;51.550;11.858;2023-05-10T12:36:04;13.75;;;4.65;;
58083;SDS011;43882;51.550;11.858;2023-05-10T12:41:04;13.88;;;4.25;;
58083;SDS011;43882;51.550;11.858;2023-05-10T12:43:32;14.02;;;4.57;;
58083;SDS011;43882;51.550;11.858;2023-05-10T12:45:58;14.30;;;4.47;;
58083;SDS011;43882;51.550;11.858;2023-05-10T12:48:31;14.63;;;4.80;;
58083;SDS011;43882;51.550;11.858;2023-05-10T12:50:58;15.10;;;4.88;;
58083;SDS011;43882;51.550;11.858;2023-05-10T12:53:25;14.90;;;4.50;;
58083;SDS011;43882;51.550;11.858;2023-05-10T12:55:51;13.30;;;4.38;;
58083;SDS011;43882;51.550;11.858;2023-05-10T12:58:18;13.85;;;4.97;;
58083;SDS011;43882;51.550;11.858;2023-05-10T13:00:44;13.55;;;4.50;;
58083;SDS011;43882;51.550;11.858;2023-05-10T13:03:11;14.60;;;5.20;;
58083;SDS011;43882;51.550;11.858;2023-05-10T13:05:37;14.88;;;4.85;;
58083;SDS011;43882;51.550;11.858;2023-05-10T13:08:03;15.10;;;4.97;;
58083;SDS011;43882;51.550;11.858;2023-05-10T13:10:30;14.88;;;4.97;;
58083;SDS011;43882;51.550;11.858;2023-05-10T13:12:57;14.63;;;4.78;;
58083;SDS011;43882;51.550;11.858;2023-05-10T13:15:24;14.20;;;4.90;;
58083;SDS011;43882;51.550;11.858;2023-05-10T13:17:50;15.10;;;4.43;;
58083;SDS011;43882;51.550;11.858;2023-05-10T13:20:16;13.52;;;4.60;;
58083;SDS011;43882;51.550;11.858;2023-05-10T13:22:43;14.30;;;4.60;;
58083;SDS011;43882;51.550;11.858;2023-05-10T13:25:09;13.13;;;3.85;;
58083;SDS011;43882;51.550;11.858;2023-05-10T13:27:36;12.40;;;3.60;;
58083;SDS011;43882;51.550;11.858;2023-05-10T13:30:04;10.13;;;3.20;;
58083;SDS011;43882;51.550;11.858;2023-05-10T13:32:30;11.82;;;3.30;;
58083;SDS011;43882;51.550;11.858;2023-05-10T13:34:56;12.32;;;3.25;;
58083;SDS011;43882;51.550;11.858;2023-05-10T13:37:23;12.05;;;3.45;;
58083;SDS011;43882;51.550;11.858;2023-05-10T13:39:49;10.73;;;3.42;;
58083;SDS011;43882;51.550;11.858;2023-05-10T13:42:15;11.02;;;3.70;;
58083;SDS011;43882;51.550;11.858;2023-05-10T13:44:41;12.32;;;3.80;;
58083;SDS011;43882;51.550;11.858;2023-05-10T13:47:08;10.88;;;3.50;;
58083;SDS011;43882;51.550;11.858;2023-05-10T13:49:34;12.55;;;3.58;;
58083;SDS011;43882;51.550;11.858;2023-05-10T13:52:00;10.05;;;3.17;;
58083;SDS011;43882;51.550;11.858;2023-05-10T13:54:31;10.70;;;3.22;;
58083;SDS011;43882;51.550;11.858;2023-05-10T13:56:58;10.68;;;3.30;;
58083;SDS011;43882;51.550;11.858;2023-05-10T13:59:24;10.43;;;3.00;;
58083;SDS011;43882;51.550;11.858;2023-05-10T14:01:50;10.15;;;3.10;;
58083;SDS011;43882;51.550;11.858;2023-05-10T14:04:17;9.95;;;3.22;;
58083;SDS011;43882;51.550;11.858;2023-05-10T14:06:43;14.05;;;4.93;;
58083;SDS011;43882;51.550;11.858;2023-05-10T14:09:09;14.40;;;5.00;;
58083;SDS011;43882;51.550;11.858;2023-05-10T14:11:35;15.23;;;5.18;;
58083;SDS011;43882;51.550;11.858;2023-05-10T14:14:01;14.93;;;4.78;;
58083;SDS011;43882;51.550;11.858;2023-05-10T14:16:28;15.70;;;5.05;;
58083;SDS011;43882;51.550;11.858;2023-05-10T14:18:54;14.80;;;5.15;;
58083;SDS011;43882;51.550;11.858;2023-05-10T14:21:20;14.75;;;5.43;;
58083;SDS011;43882;51.550;11.858;2023-05-10T14:23:46;14.35;;;4.95;;
58083;SDS011;43882;51.550;11.858;2023-05-10T14:26:12;13.70;;;4.30;;
58083;SDS011;43882;51.550;11.858;2023-05-10T14:28:38;14.40;;;4.18;;
58083;SDS011;43882;51.550;11.858;2023-05-10T14:31:05;13.85;;;4.15;;
58083;SDS011;43882;51.550;11.858;2023-05-10T14:33:31;13.27;;;4.20;;
58083;SDS011;43882;51.550;11.858;2023-05-10T14:35:57;13.05;;;4.00;;
58083;SDS011;43882;51.550;11.858;2023-05-10T14:38:24;13.75;;;4.40;;
58083;SDS011;43882;51.550;11.858;2023-05-10T14:40:50;13.95;;;4.45;;
58083;SDS011;43882;51.550;11.858;2023-05-10T14:43:16;14.77;;;5.15;;
58083;SDS011;43882;51.550;11.858;2023-05-10T14:45:42;16.35;;;5.20;;